TimeMDT,TemperatureF,Dew PointF,Humidity,Sea Level PressureIn,VisibilityMPH,Wind Direction,Wind SpeedMPH,Gust SpeedMPH,PrecipitationIn,Events,Conditions,WindDirDegrees,DateUTC
2:40 AM,75,72,86,29.77,2,SE,4.5,,,,Partly Cloudy,140,2012-10-17 08:40:00
5:51 AM,73.4,69.8,88,29.89,10.0,SSE,6.9,-,N/A,,Scattered Clouds,150,2012-10-17 11:51:00
6:44 AM,73.4,69.8,88,29.82,10.0,SSE,6.9,-,N/A,,Scattered Clouds,150,2012-10-17 12:44:00
7:44 AM,71.6,69.8,94,29.85,10.0,SSE,6.9,-,N/A,,Scattered Clouds,150,2012-10-17 13:44:00
8:45 AM,75.2,71.6,89,29.92,10.0,South,5.8,-,N/A,,Scattered Clouds,190,2012-10-17 14:45:00
8:50 AM,79,72,73,29.87,19,Calm,Calm,,,,,,2012-10-17 14:50:00
9:45 AM,78.8,69.8,74,29.89,10.0,SSW,4.6,-,N/A,,Mostly Cloudy,200,2012-10-17 15:45:00
10:41 AM,82.4,68.0,62,29.90,10.0,SSW,5.8,-,N/A,,Mostly Cloudy,200,2012-10-17 16:41:00
11:47 AM,84.2,66.2,55,29.95,10.0,SW,5.8,-,N/A,,Mostly Cloudy,220,2012-10-17 17:47:00
12:44 PM,84.2,64.4,51,29.88,12.0,SW,8.1,-,N/A,,Mostly Cloudy,230,2012-10-17 18:44:00
1:43 PM,84.2,64.4,51,29.86,12.0,SSE,8.1,-,N/A,,Mostly Cloudy,150,2012-10-17 19:43:00
2:50 PM,89,66,37,29.84,19,SSW,4.5,,,,Scattered Clouds,210,2012-10-17 20:50:00
2:51 PM,86.0,62.6,45,29.89,12.0,SSW,5.8,-,N/A,,Mostly Cloudy,210,2012-10-17 20:51:00
3:41 PM,86.0,62.6,45,29.84,12.0,West,5.8,-,N/A,,Scattered Clouds,260,2012-10-17 21:41:00
4:48 PM,87.8,64.4,46,29.84,12.0,West,4.6,-,N/A,,Partly Cloudy,280,2012-10-17 22:48:00
5:47 PM,86.0,64.4,48,29.91,12.0,West,8.1,-,N/A,,Partly Cloudy,280,2012-10-17 23:47:00
5:50 PM,88,67,40,29.86,12,SW,4.5,,,,,230,2012-10-17 23:50:00
6:43 PM,82.4,66.2,58,29.87,10.0,West,4.6,-,N/A,,Clear,280,2012-10-18 00:43:00
7:42 PM,78.8,68.0,69,29.90,10.0,Calm,Calm,-,N/A,,Partly Cloudy,0,2012-10-18 01:42:00
8:48 PM,78.8,68.0,69,29.97,10.0,South,3.5,-,N/A,,Partly Cloudy,180,2012-10-18 02:48:00
8:50 PM,81,70,63,29.91,2,SW,2.2,,,,,230,2012-10-18 02:50:00
9:42 PM,75.2,69.8,83,29.94,10.0,South,3.5,-,N/A,,Partly Cloudy,180,2012-10-18 03:42:00
10:41 PM,73.4,69.8,88,29.95,10.0,South,4.6,-,N/A,,Partly Cloudy,170,2012-10-18 04:41:00
11:40 PM,77,71,77,29.93,2,Calm,Calm,,,,,,2012-10-18 05:40:00
11:49 PM,73.4,69.8,88,30.01,10.0,Calm,Calm,-,N/A,,Partly Cloudy,0,2012-10-18 05:49:00